Time;durP1;ratioP1;P1;durP2;ratioP2;P2;SDS_P1;SDS_P2;PMS_P1;PMS_P2;Temp;Humidity;BMP_temperature;BMP_pressure;BME280_temperature;BME280_humidity;BME280_pressure;Samples;Min_cycle;Max_cycle;Signal;HPM_P1;HPM_P2
2023/07/09 00:01:42;;;;;;;28.52;19.85;;;;;;;23.09;46.63;100579.59;5011577;28;98337;-78
2023/07/09 00:04:11;;;;;;;20.35;18.15;;;;;;;23.03;46.77;100572.06;5013987;28;97296;-77
2023/07/09 00:06:38;;;;;;;21.30;19.45;;;;;;;23.03;46.92;100590.81;5013342;28;96867;-79
2023/07/09 00:09:04;;;;;;;20.50;18.70;;;;;;;22.98;46.98;100588.53;5013440;28;98928;-79
2023/07/09 00:11:30;;;;;;;19.60;17.80;;;;;;;22.98;47.09;100587.66;5011792;28;98553;-77
2023/07/09 00:13:56;;;;;;;20.33;18.35;;;;;;;22.95;46.99;100587.91;5013388;28;96758;-77
2023/07/09 00:16:24;;;;;;;27.67;18.52;;;;;;;22.87;46.86;100576.97;5013728;28;96839;-77
2023/07/09 00:18:50;;;;;;;19.92;18.13;;;;;;;22.82;46.74;100588.03;5012195;28;98894;-77
2023/07/09 00:21:22;;;;;;;21.23;19.23;;;;;;;22.86;46.26;100591.31;5012938;28;98695;-77
2023/07/09 00:23:48;;;;;;;20.42;18.45;;;;;;;22.81;46.32;100589.88;5011267;28;96987;-79
2023/07/09 00:26:16;;;;;;;18.98;17.30;;;;;;;22.72;46.12;100579.03;5013635;28;97031;-77
2023/07/09 00:28:42;;;;;;;24.63;18.08;;;;;;;22.75;46.26;100592.19;5011459;28;98772;-79
2023/07/09 00:31:16;;;;;;;19.80;18.08;;;;;;;22.74;46.37;100590.47;5001165;28;100479;-77
2023/07/09 00:33:42;;;;;;;19.85;18.20;;;;;;;22.66;46.41;100583.09;4991806;28;96831;-79
2023/07/09 00:36:14;;;;;;;20.42;18.15;;;;;;;22.68;46.43;100585.63;4999499;28;96904;-76
2023/07/09 00:38:40;;;;;;;20.73;18.65;;;;;;;22.66;46.64;100587.56;5008116;28;97673;-79
2023/07/09 00:41:17;;;;;;;20.90;18.88;;;;;;;22.38;46.59;100555.03;5007421;28;100533;-79
2023/07/09 00:43:44;;;;;;;19.42;17.58;;;;;;;22.60;46.72;100591.59;5005606;28;96741;-76
2023/07/09 00:46:18;;;;;;;19.73;18.20;;;;;;;22.57;46.82;100591.84;5013122;28;97457;-76
2023/07/09 00:48:48;;;;;;;20.38;18.48;;;;;;;22.55;47.07;100589.28;5011706;28;98048;-79
2023/07/09 00:51:17;;;;;;;20.08;18.27;;;;;;;22.53;47.13;100583.22;5012488;28;98500;-76
2023/07/09 00:53:45;;;;;;;19.05;17.42;;;;;;;22.45;47.28;100587.47;5012825;28;97108;-76
2023/07/09 00:56:19;;;;;;;20.55;18.70;;;;;;;22.50;47.13;100591.47;5012874;28;96887;-79
2023/07/09 00:58:48;;;;;;;19.88;18.27;;;;;;;22.45;47.20;100603.50;4990917;28;99000;-79
2023/07/09 01:01:18;;;;;;;19.55;17.95;;;;;;;22.34;47.36;100577.63;5005500;28;98903;-76
2023/07/09 01:03:46;;;;;;;19.52;17.50;;;;;;;22.36;47.57;100578.34;5007865;28;97356;-80
2023/07/09 01:06:12;;;;;;;21.75;19.05;;;;;;;22.34;47.43;100585.63;5023523;28;96815;-77
2023/07/09 01:08:42;;;;;;;20.27;18.38;;;;;;;22.31;47.50;100584.09;5010736;28;99022;-77
2023/07/09 01:11:21;;;;;;;20.98;18.80;;;;;;;22.32;47.84;100592.94;5007856;28;99179;-79
2023/07/09 01:13:57;;;;;;;20.98;18.63;;;;;;;22.31;48.18;100593.91;4997861;28;97313;-79
2023/07/09 01:16:29;;;;;;;20.42;18.65;;;;;;;22.27;48.53;100587.97;5025420;28;97980;-80
2023/07/09 01:18:54;;;;;;;19.02;17.35;;;;;;;22.27;48.53;100587.09;5026924;28;98655;-77
2023/07/09 01:21:20;;;;;;;20.02;18.02;;;;;;;22.23;48.72;100597.19;5011958;28;98537;-78
2023/07/09 01:23:47;;;;;;;21.55;18.02;;;;;;;22.21;48.55;100593.78;4998552;28;96786;-78
2023/07/09 01:26:19;;;;;;;20.50;18.60;;;;;;;22.20;48.84;100594.78;5007925;28;96883;-77
2023/07/09 01:28:46;;;;;;;19.85;18.17;;;;;;;22.16;49.10;100590.59;5010421;28;99085;-77
2023/07/09 01:31:14;;;;;;;21.10;18.95;;;;;;;22.11;49.62;100593.63;5012375;28;98729;-77
2023/07/09 01:33:44;;;;;;;19.77;17.83;;;;;;;22.08;49.58;100596.56;5012320;28;97265;-77
2023/07/09 01:36:16;;;;;;;20.45;18.33;;;;;;;22.08;49.65;100601.06;5016351;28;96752;-78
2023/07/09 01:38:43;;;;;;;21.17;19.45;;;;;;;22.03;49.99;100600.56;5011275;28;98885;-77
2023/07/09 01:41:13;;;;;;;21.67;19.38;;;;;;;22.05;49.92;100599.47;5011989;28;97425;-77
2023/07/09 01:43:41;;;;;;;19.48;17.77;;;;;;;22.03;50.22;100593.38;5012030;28;96708;-77
2023/07/09 01:46:08;;;;;;;20.20;18.40;;;;;;;21.99;50.24;100586.59;5007522;28;96959;-78
2023/07/09 01:48:40;;;;;;;21.20;18.65;;;;;;;21.95;50.24;100592.28;5004185;28;99072;-78
2023/07/09 01:51:16;;;;;;;21.42;19.30;;;;;;;21.96;50.34;100589.47;5004759;28;100475;-78
2023/07/09 01:53:44;;;;;;;20.23;18.20;;;;;;;21.93;50.09;100590.56;5000204;28;96891;-78
2023/07/09 01:56:10;;;;;;;21.45;19.58;;;;;;;21.86;50.49;100578.66;5026848;27;96909;-78
2023/07/09 01:58:36;;;;;;;20.08;18.40;;;;;;;21.88;50.35;100587.41;5010053;28;100572;-79
2023/07/09 02:01:02;;;;;;;19.63;17.92;;;;;;;21.87;50.52;100588.34;5012476;28;98760;-79
2023/07/09 02:03:28;;;;;;;21.00;18.92;;;;;;;21.85;50.62;100595.66;5015252;28;96656;-79
2023/07/09 02:05:54;;;;;;;21.13;19.33;;;;;;;21.78;50.54;100582.88;5015543;28;97121;-79
2023/07/09 02:08:21;;;;;;;20.73;18.73;;;;;;;21.75;50.54;100585.78;5015092;28;98054;-79
2023/07/09 02:10:50;;;;;;;20.35;18.60;;;;;;;21.69;50.59;100590.63;5015160;28;98445;-79
2023/07/09 02:13:16;;;;;;;20.75;19.13;;;;;;;21.66;50.63;100590.84;5015442;28;96704;-79
2023/07/09 02:15:43;;;;;;;20.75;18.98;;;;;;;21.66;50.77;100603.38;5011062;28;98077;-79
2023/07/09 02:18:11;;;;;;;20.92;18.95;;;;;;;21.61;51.01;100598.38;5011943;28;98523;-79
2023/07/09 02:20:37;;;;;;;20.60;18.63;;;;;;;21.59;50.93;100600.31;5015349;28;98828;-79
2023/07/09 02:23:03;;;;;;;20.35;18.40;;;;;;;21.54;51.21;100589.13;5014505;28;96810;-79
2023/07/09 02:25:30;;;;;;;19.58;18.10;;;;;;;21.53;51.21;100594.59;5011453;28;97749;-79
2023/07/09 02:27:55;;;;;;;20.20;18.23;;;;;;;21.44;51.48;100598.81;5008378;28;99069;-79
2023/07/09 02:30:21;;;;;;;20.63;18.83;;;;;;;21.33;51.23;100594.22;5018804;28;98739;-79
2023/07/09 02:32:47;;;;;;;20.10;18.30;;;;;;;21.33;51.66;100609.41;5015350;28;97281;-79
2023/07/09 02:35:12;;;;;;;21.80;19.13;;;;;;;21.31;51.80;100627.34;5005021;28;96889;-79
2023/07/09 02:37:38;;;;;;;20.27;18.45;;;;;;;21.28;51.88;100619.56;4993071;28;100804;-80
2023/07/09 02:40:05;;;;;;;21.17;18.83;;;;;;;21.28;52.01;100619.56;5013693;28;98718;-79
2023/07/09 02:42:30;;;;;;;20.92;18.77;;;;;;;21.30;51.92;100625.66;5014937;28;96723;-80
2023/07/09 02:44:57;;;;;;;20.70;18.83;;;;;;;21.30;51.83;100620.31;5010660;28;96888;-78
2023/07/09 02:47:26;;;;;;;20.38;18.17;;;;;;;21.27;52.03;100609.88;5012998;28;100690;-78
2023/07/09 02:49:52;;;;;;;19.13;17.40;;;;;;;21.25;51.95;100613.47;4998669;28;98835;-80
2023/07/09 02:52:18;;;;;;;19.83;18.02;;;;;;;21.24;52.16;100611.78;5014265;28;96697;-80
2023/07/09 02:54:44;;;;;;;20.08;18.48;;;;;;;21.27;52.15;100605.38;5015051;28;96813;-78
2023/07/09 02:57:09;;;;;;;20.00;18.02;;;;;;;21.21;52.40;100609.34;5009490;28;100694;-78
2023/07/09 02:59:35;;;;;;;22.83;19.10;;;;;;;21.27;52.18;100612.53;5005286;28;100098;-80
2023/07/09 03:02:02;;;;;;;19.85;18.15;;;;;;;21.32;51.98;100621.03;5013034;28;96850;-80
2023/07/09 03:04:27;;;;;;;19.42;18.13;;;;;;;21.29;52.33;100615.91;5013640;28;96986;-80
2023/07/09 03:06:53;;;;;;;20.25;18.40;;;;;;;21.22;52.28;100624.38;5011152;28;100561;-79
2023/07/09 03:09:20;;;;;;;20.55;18.60;;;;;;;21.13;52.49;100613.53;5013311;28;100405;-78
2023/07/09 03:11:45;;;;;;;21.10;18.83;;;;;;;21.09;52.62;100617.38;5029634;28;96772;-77
2023/07/09 03:14:11;;;;;;;20.58;18.77;;;;;;;20.89;53.02;100619.72;5014824;28;96908;-78
2023/07/09 03:16:37;;;;;;;20.92;18.83;;;;;;;20.40;53.93;100598.34;5013174;28;98543;-78
2023/07/09 03:19:04;;;;;;;20.75;18.85;;;;;;;20.75;53.51;100628.69;5013836;28;98689;-80
2023/07/09 03:21:30;;;;;;;20.23;18.30;;;;;;;20.74;53.05;100603.00;5013923;28;96816;-80
2023/07/09 03:23:56;;;;;;;20.48;18.45;;;;;;;21.07;52.61;100640.69;5013215;28;96912;-78
2023/07/09 03:26:22;;;;;;;19.95;18.33;;;;;;;21.28;52.55;100635.59;5012561;28;100580;-78
2023/07/09 03:28:48;;;;;;;20.08;18.27;;;;;;;21.45;52.15;100628.06;5013829;28;98316;-78
2023/07/09 03:31:13;;;;;;;20.90;19.02;;;;;;;21.55;51.66;100622.00;5014294;28;97098;-77
2023/07/09 03:33:39;;;;;;;21.15;19.20;;;;;;;21.72;51.63;100634.94;5014416;28;96888;-78
2023/07/09 03:36:04;;;;;;;19.60;17.85;;;;;;;21.68;51.47;100606.78;5013676;28;98949;-77
2023/07/09 03:38:30;;;;;;;20.02;18.27;;;;;;;21.89;51.43;100641.69;5013501;28;98322;-77
2023/07/09 03:40:56;;;;;;;21.00;19.17;;;;;;;21.99;51.09;100631.13;5013191;28;97046;-78
2023/07/09 03:43:22;;;;;;;20.75;18.95;;;;;;;22.05;51.02;100620.84;5013989;28;96807;-77
2023/07/09 03:45:48;;;;;;;18.65;16.95;;;;;;;22.08;50.71;100631.28;5013613;28;98604;-77
2023/07/09 03:48:15;;;;;;;19.65;17.83;;;;;;;22.28;50.33;100628.91;5013608;28;98375;-78
2023/07/09 03:50:42;;;;;;;18.40;16.73;;;;;;;22.40;50.30;100629.75;5014162;28;97169;-77
2023/07/09 03:53:07;;;;;;;20.05;18.30;;;;;;;22.51;50.25;100622.59;5028916;27;96893;-77
2023/07/09 03:55:33;;;;;;;18.70;16.85;;;;;;;22.56;49.95;100636.47;5013542;28;98903;-77
2023/07/09 03:57:58;;;;;;;19.30;17.38;;;;;;;22.61;49.53;100620.06;5027787;27;98687;-78
2023/07/09 04:00:27;;;;;;;19.58;18.05;;;;;;;22.70;49.74;100622.00;5013938;28;96639;-77
2023/07/09 04:02:53;;;;;;;20.85;19.10;;;;;;;22.73;49.74;100627.09;5013599;28;96874;-77
2023/07/09 04:05:18;;;;;;;19.60;16.90;;;;;;;22.68;49.35;100625.75;5012898;28;98848;-80
2023/07/09 04:07:44;;;;;;;20.65;18.80;;;;;;;22.67;48.87;100626.75;5013038;28;98336;-79
2023/07/09 04:10:10;;;;;;;19.77;18.13;;;;;;;22.69;48.67;100627.44;5013451;28;97111;-77
2023/07/09 04:12:36;;;;;;;21.02;18.65;;;;;;;22.79;48.52;100626.59;5013267;28;96848;-77
2023/07/09 04:15:03;;;;;;;20.95;18.13;;;;;;;22.95;48.26;100639.66;5013466;28;98646;-78
2023/07/09 04:17:29;;;;;;;20.42;18.48;;;;;;;23.00;48.10;100631.22;5012799;28;98608;-78
2023/07/09 04:19:54;;;;;;;21.25;18.92;;;;;;;23.05;47.74;100629.03;5012796;28;97032;-77
2023/07/09 04:22:21;;;;;;;21.35;19.42;;;;;;;22.98;47.82;100622.47;5013157;28;97021;-79
2023/07/09 04:24:46;;;;;;;20.73;18.83;;;;;;;23.03;47.89;100631.81;5012420;28;98856;-80
2023/07/09 04:27:13;;;;;;;19.67;17.77;;;;;;;23.16;47.13;100633.53;5012859;28;98396;-78
2023/07/09 04:29:39;;;;;;;21.13;19.17;;;;;;;23.41;47.05;100635.00;5011555;28;96871;-78
2023/07/09 04:32:12;;;;;;;22.95;18.35;;;;;;;23.63;46.51;100636.75;5012933;28;96912;-78
2023/07/09 04:34:41;;;;;;;19.85;18.20;;;;;;;23.74;45.93;100644.78;5013023;28;98725;-80
2023/07/09 04:37:07;;;;;;;20.27;18.58;;;;;;;23.84;45.96;100640.31;5012411;28;98706;-78
2023/07/09 04:39:33;;;;;;;19.40;17.60;;;;;;;24.02;45.80;100656.66;5012038;28;96822;-78
2023/07/09 04:41:59;;;;;;;21.05;19.05;;;;;;;24.06;45.55;100644.72;5012811;28;97253;-78
2023/07/09 04:44:25;;;;;;;20.85;18.85;;;;;;;24.33;45.10;100651.38;5013299;28;98562;-77
2023/07/09 04:46:50;;;;;;;19.60;17.80;;;;;;;24.46;45.19;100659.22;5012625;28;98544;-77
2023/07/09 04:49:16;;;;;;;19.73;18.13;;;;;;;24.59;45.01;100657.19;5013288;28;97390;-78
2023/07/09 04:51:41;;;;;;;21.15;19.25;;;;;;;24.71;44.55;100658.78;5012725;28;97987;-78
2023/07/09 04:54:07;;;;;;;19.27;17.63;;;;;;;24.98;44.07;100662.69;5012215;28;98953;-78
2023/07/09 04:56:33;;;;;;;20.63;18.85;;;;;;;25.02;43.91;100650.69;5012375;28;98283;-78
2023/07/09 04:58:58;;;;;;;20.05;18.20;;;;;;;25.21;43.77;100666.03;5012715;28;96622;-78
2023/07/09 05:01:24;;;;;;;20.27;17.80;;;;;;;25.35;43.27;100664.78;5006304;28;96834;-78
2023/07/09 05:03:49;;;;;;;20.05;18.42;;;;;;;25.38;43.11;100668.03;5004881;28;99171;-78
2023/07/09 05:06:15;;;;;;;18.83;17.30;;;;;;;25.49;43.02;100661.69;5007521;28;98439;-77
2023/07/09 05:08:41;;;;;;;19.20;17.50;;;;;;;25.52;42.71;100664.94;5002808;28;96721;-77
2023/07/09 05:11:07;;;;;;;19.08;17.52;;;;;;;25.68;42.36;100667.03;5012889;28;96859;-77
2023/07/09 05:13:32;;;;;;;21.02;18.95;;;;;;;25.88;41.94;100672.47;5012210;28;98904;-77
2023/07/09 05:15:58;;;;;;;19.05;17.52;;;;;;;26.02;41.89;100669.34;5012679;28;98854;-77
2023/07/09 05:18:24;;;;;;;19.45;17.95;;;;;;;26.10;41.86;100660.56;5025050;27;96866;-77
2023/07/09 05:20:49;;;;;;;19.08;17.45;;;;;;;26.24;41.54;100665.47;5012520;28;96769;-77
2023/07/09 05:23:15;;;;;;;19.52;17.92;;;;;;;26.31;41.47;100652.28;5011463;28;99065;-78
2023/07/09 05:25:40;;;;;;;20.02;18.05;;;;;;;26.55;41.43;100673.34;5012266;28;98271;-78
2023/07/09 05:28:06;;;;;;;19.88;18.27;;;;;;;26.68;41.25;100671.19;5011243;28;97079;-78
2023/07/09 05:30:32;;;;;;;19.58;17.63;;;;;;;26.71;40.82;100648.50;5012322;28;97701;-77
2023/07/09 05:32:57;;;;;;;19.58;17.83;;;;;;;26.89;40.93;100664.69;5012050;28;99141;-78
2023/07/09 05:35:25;;;;;;;19.80;17.85;;;;;;;27.11;40.48;100664.28;5011055;28;98714;-77
2023/07/09 05:37:54;;;;;;;20.60;18.48;;;;;;;27.22;40.04;100674.88;5003981;28;96774;-77
2023/07/09 05:40:20;;;;;;;20.17;17.67;;;;;;;27.53;39.71;100674.53;5006580;28;96840;-78
2023/07/09 05:42:46;;;;;;;20.55;18.67;;;;;;;27.85;39.27;100673.16;5011621;28;98850;-78
2023/07/09 05:45:11;;;;;;;19.70;17.60;;;;;;;28.18;38.67;100667.00;5011399;28;98746;-77
2023/07/09 05:47:37;;;;;;;20.40;18.35;;;;;;;28.53;38.43;100678.72;5012346;28;96893;-80
2023/07/09 05:50:03;;;;;;;19.48;18.00;;;;;;;29.08;37.50;100670.22;5011867;28;97395;-78
2023/07/09 05:52:29;;;;;;;19.58;18.08;;;;;;;29.64;36.29;100659.75;4997336;28;99994;-78
2023/07/09 05:54:55;;;;;;;18.50;16.85;;;;;;;30.42;34.91;100655.59;5011226;28;98063;-78
2023/07/09 05:57:21;;;;;;;19.50;17.75;;;;;;;31.45;33.66;100651.97;5026075;28;97181;-80
2023/07/09 05:59:47;;;;;;;18.05;16.75;;;;;;;32.81;31.81;100654.56;5013059;28;97636;-79
2023/07/09 06:02:17;;;;;;;18.77;17.25;;;;;;;34.83;29.07;100652.44;5011663;28;99035;-78
2023/07/09 06:04:43;;;;;;;17.55;16.30;;;;;;;38.63;25.33;100660.28;5011183;28;98665;-79
2023/07/09 06:07:09;;;;;;;18.08;16.58;;;;;;;41.83;21.99;100646.03;5011433;28;96720;-78
2023/07/09 06:09:36;;;;;;;17.38;16.23;;;;;;;44.38;19.53;100643.59;5011585;28;96901;-78
2023/07/09 06:12:02;;;;;;;17.50;16.23;;;;;;;46.31;17.81;100655.25;5011708;28;99152;-81
2023/07/09 06:14:28;;;;;;;19.27;17.98;;;;;;;47.60;16.36;100651.50;5011139;28;98649;-82
2023/07/09 06:16:53;;;;;;;17.85;16.50;;;;;;;48.60;15.92;100657.44;5004210;28;96722;-81
2023/07/09 06:19:19;;;;;;;16.70;15.32;;;;;;;49.66;15.04;100650.56;5005107;28;97128;-81
2023/07/09 06:21:44;;;;;;;17.27;16.15;;;;;;;50.29;14.74;100650.78;5011116;28;99017;-82
2023/07/09 06:24:10;;;;;;;17.02;15.93;;;;;;;51.00;14.20;100652.34;5011784;28;98842;-79
2023/07/09 06:26:36;;;;;;;16.20;14.90;;;;;;;51.68;14.20;100651.25;5011130;28;96792;-79
2023/07/09 06:29:02;;;;;;;16.75;15.35;;;;;;;52.23;13.26;100650.03;5012257;28;97620;-79
2023/07/09 06:31:29;;;;;;;16.42;15.15;;;;;;;52.95;13.17;100649.53;5010313;28;98797;-82
2023/07/09 06:33:55;;;;;;;16.88;15.57;;;;;;;53.37;12.79;100644.28;5011199;28;98425;-79
2023/07/09 06:36:20;;;;;;;17.42;16.13;;;;;;;53.87;12.20;100642.00;5011090;28;96839;-79
2023/07/09 06:38:46;;;;;;;16.95;15.85;;;;;;;54.38;12.23;100645.78;5011591;28;97164;-79
2023/07/09 06:41:13;;;;;;;18.73;17.35;;;;;;;54.87;11.96;100649.72;5010903;28;98729;-80
2023/07/09 06:43:38;;;;;;;17.80;16.60;;;;;;;55.43;11.88;100635.34;5011459;28;98420;-80
2023/07/09 06:46:05;;;;;;;17.58;16.38;;;;;;;55.76;11.16;100654.16;5011145;28;97556;-80
2023/07/09 06:48:31;;;;;;;17.45;16.35;;;;;;;56.32;11.57;100646.00;5014629;28;96834;-80
2023/07/09 06:50:57;;;;;;;18.10;17.00;;;;;;;56.74;10.95;100642.91;5014095;28;99045;-80
2023/07/09 06:53:23;;;;;;;17.80;16.60;;;;;;;57.18;10.56;100645.81;5014911;28;98589;-80
2023/07/09 06:55:49;;;;;;;18.45;17.20;;;;;;;57.69;10.53;100645.97;5013849;28;97464;-80
2023/07/09 06:58:16;;;;;;;17.67;16.45;;;;;;;57.92;10.06;100639.72;5014747;28;96806;-80
2023/07/09 07:00:41;;;;;;;18.00;16.73;;;;;;;58.31;10.07;100648.34;5014095;28;99101;-80
2023/07/09 07:03:08;;;;;;;17.20;16.00;;;;;;;58.82;9.90;100645.47;5030173;27;98823;-80
2023/07/09 07:05:34;;;;;;;18.60;17.45;;;;;;;59.46;10.01;100643.91;5014382;28;97139;-80
2023/07/09 07:08:00;;;;;;;18.30;17.00;;;;;;;59.88;9.40;100640.25;5000682;28;96963;-80
2023/07/09 07:10:26;;;;;;;18.55;17.25;;;;;;;60.46;8.98;100637.09;5000917;28;98666;-81
2023/07/09 07:12:52;;;;;;;18.67;17.48;;;;;;;60.68;8.84;100634.53;5011348;28;97541;-81
2023/07/09 07:15:17;;;;;;;19.13;17.92;;;;;;;60.85;9.17;100630.31;5014207;28;96678;-80
2023/07/09 07:17:43;;;;;;;17.95;16.83;;;;;;;61.21;8.86;100622.19;5014343;28;96904;-81
2023/07/09 07:20:10;;;;;;;19.13;17.92;;;;;;;61.76;8.61;100619.50;5013201;28;98746;-81
2023/07/09 07:22:38;;;;;;;17.77;16.58;;;;;;;62.11;8.77;100618.94;5009511;28;99214;-80
2023/07/09 07:25:05;;;;;;;18.17;16.98;;;;;;;62.38;7.97;100613.03;5012992;28;96761;-81
2023/07/09 07:27:30;;;;;;;18.33;17.00;;;;;;;62.68;8.09;100610.72;5014116;28;96855;-81
2023/07/09 07:29:56;;;;;;;20.20;18.77;;;;;;;63.05;7.99;100603.97;5013693;28;98734;-81
2023/07/09 07:32:21;;;;;;;19.60;18.25;;;;;;;63.63;7.96;100604.84;5013798;28;98432;-81
2023/07/09 07:34:48;;;;;;;19.45;18.25;;;;;;;63.65;7.44;100602.38;5013858;28;97382;-81
2023/07/09 07:37:14;;;;;;;19.40;17.90;;;;;;;63.67;7.22;100605.63;5011406;28;96715;-81
2023/07/09 07:39:40;;;;;;;20.92;19.63;;;;;;;64.00;7.48;100601.53;5002710;28;98896;-81
2023/07/09 07:42:06;;;;;;;20.83;19.42;;;;;;;64.36;7.39;100598.63;5013975;28;98818;-82
2023/07/09 07:44:32;;;;;;;21.97;20.60;;;;;;;64.77;6.86;100589.47;5006213;28;96771;-81
2023/07/09 07:46:57;;;;;;;22.17;20.67;;;;;;;65.28;6.75;100593.59;5007282;28;96770;-81
2023/07/09 07:49:22;;;;;;;22.93;21.60;;;;;;;65.39;6.92;100589.84;5013334;28;98768;-81
2023/07/09 07:51:48;;;;;;;24.97;23.40;;;;;;;65.56;6.80;100580.31;5013519;28;98448;-81
2023/07/09 07:54:14;;;;;;;24.27;22.83;;;;;;;66.03;7.38;100583.53;5014038;28;96742;-81
2023/07/09 07:56:41;;;;;;;26.35;24.63;;;;;;;66.23;6.91;100583.69;5012491;28;96782;-81
2023/07/09 07:59:07;;;;;;;25.08;23.48;;;;;;;66.53;6.90;100582.09;4993055;28;98727;-81
2023/07/09 08:01:34;;;;;;;26.93;25.13;;;;;;;66.49;6.59;100587.84;5012163;28;98265;-81
2023/07/09 08:04:04;;;;;;;27.63;25.75;;;;;;;66.71;6.28;100585.50;5029295;28;96821;-81
2023/07/09 08:06:31;;;;;;;30.75;28.92;;;;;;;66.91;6.98;100587.69;5013082;28;97315;-81
2023/07/09 08:08:57;;;;;;;30.40;28.30;;;;;;;67.21;6.05;100592.53;5013060;28;98573;-81
2023/07/09 08:11:22;;;;;;;;;;;;;;;67.03;6.04;100596.47;5013343;28;98584;-81
2023/07/09 08:13:48;;;;;;;;;;;;;;;67.08;5.97;100598.88;5014572;28;96958;-81
2023/07/09 08:16:13;;;;;;;27.67;26.03;;;;;;;67.24;6.38;100597.38;5013484;28;96896;-81
2023/07/09 08:18:39;;;;;;;30.93;28.53;;;;;;;67.34;6.19;100601.34;5012903;28;98672;-81
2023/07/09 08:21:05;;;;;;;30.48;28.55;;;;;;;67.24;5.85;100603.94;5012766;28;98625;-81
2023/07/09 08:23:30;;;;;;;30.63;28.83;;;;;;;66.75;5.60;100597.72;5013342;28;96812;-81
2023/07/09 08:25:57;;;;;;;27.90;26.23;;;;;;;66.45;6.75;100595.66;5013544;28;96896;-81
2023/07/09 08:28:23;;;;;;;28.27;26.55;;;;;;;66.15;6.85;100588.66;5013604;28;99030;-81
2023/07/09 08:30:51;;;;;;;27.57;25.87;;;;;;;65.69;6.53;100601.38;5012760;28;98635;-81
2023/07/09 08:33:17;;;;;;;29.35;27.35;;;;;;;65.15;6.88;100603.06;5013075;28;96593;-84
2023/07/09 08:35:43;;;;;;;27.45;25.85;;;;;;;63.82;7.50;100597.09;5012965;28;96733;-81
2023/07/09 08:38:09;;;;;;;26.80;25.10;;;;;;;60.90;8.24;100595.94;5013201;28;98558;-81
2023/07/09 08:40:52;;;;;;;26.20;24.60;;;;;;;57.71;9.82;100609.75;5012382;28;98723;-81
2023/07/09 08:43:33;;;;;;;22.08;20.67;;;;;;;54.89;10.86;100605.22;5013775;28;96575;-81
2023/07/09 08:46:33;;;;;;;22.75;21.35;;;;;;;52.61;12.19;100610.28;4997118;28;98222;-81
2023/07/09 08:49:01;;;;;;;21.20;19.80;;;;;;;50.87;13.28;100615.75;5011462;28;99189;-81
2023/07/09 08:51:40;;;;;;;18.27;17.17;;;;;;;49.36;14.33;100606.16;5011523;28;98347;-81
2023/07/09 08:54:19;;;;;;;17.48;16.35;;;;;;;48.09;13.93;100622.66;5011908;28;96904;-80
2023/07/09 08:56:45;;;;;;;17.08;16.05;;;;;;;46.93;15.08;100623.34;5011535;28;96849;-80
2023/07/09 08:59:11;;;;;;;16.95;15.80;;;;;;;46.17;15.65;100618.91;5010817;28;98671;-80
2023/07/09 09:01:40;;;;;;;18.13;17.02;;;;;;;45.20;16.30;100622.56;4990772;28;100081;-79
2023/07/09 09:04:20;;;;;;;18.45;17.35;;;;;;;44.50;16.56;100628.44;5002824;28;96714;-80
2023/07/09 09:06:51;;;;;;;18.58;17.25;;;;;;;43.82;17.09;100625.53;5004219;28;96813;-80
2023/07/09 09:09:47;;;;;;;18.00;16.65;;;;;;;43.06;18.11;100625.66;5003893;28;98975;-80
2023/07/09 09:12:17;;;;;;;18.70;17.38;;;;;;;42.62;18.52;100627.59;5011822;28;98341;-80
2023/07/09 09:14:44;;;;;;;17.45;16.35;;;;;;;42.18;18.72;100617.38;5007435;28;97258;-79
2023/07/09 09:17:16;;;;;;;18.20;17.00;;;;;;;41.82;18.87;100622.31;5001816;28;97435;-79
2023/07/09 09:19:56;;;;;;;18.13;16.95;;;;;;;41.50;19.04;100624.00;5010771;28;98671;-79
2023/07/09 09:22:26;;;;;;;17.40;16.17;;;;;;;41.14;19.39;100626.94;5012179;28;98618;-80
2023/07/09 09:25:24;;;;;;;18.10;16.90;;;;;;;40.95;19.50;100630.94;5010188;28;96793;-79
2023/07/09 09:27:50;;;;;;;16.73;15.53;;;;;;;40.45;19.69;100623.28;5011045;28;99059;-79
2023/07/09 09:30:23;;;;;;;17.35;16.25;;;;;;;40.39;19.65;100633.34;5011621;28;99035;-79
2023/07/09 09:32:54;;;;;;;16.80;15.60;;;;;;;40.20;19.63;100629.88;5011354;28;98475;-79
2023/07/09 09:35:20;;;;;;;17.60;16.35;;;;;;;39.96;19.36;100630.97;5012266;28;96793;-79
2023/07/09 09:37:57;;;;;;;16.98;15.77;;;;;;;39.84;19.47;100628.22;5012065;28;96857;-81
2023/07/09 09:40:24;;;;;;;16.02;15.02;;;;;;;39.67;19.88;100633.53;5011509;28;98910;-82
2023/07/09 09:42:51;;;;;;;16.90;15.77;;;;;;;39.58;19.89;100643.19;5012402;28;98499;-80
2023/07/09 09:45:20;;;;;;;15.93;14.93;;;;;;;39.47;20.10;100633.84;5012102;28;96719;-79
2023/07/09 09:47:46;;;;;;;15.47;14.43;;;;;;;39.27;20.13;100630.56;5011797;28;96924;-79
2023/07/09 09:50:20;;;;;;;15.88;14.98;;;;;;;39.03;20.21;100635.13;5011122;28;98586;-80
2023/07/09 09:52:47;;;;;;;16.60;15.40;;;;;;;38.84;19.94;100631.56;5005413;28;98636;-79
2023/07/09 09:55:28;;;;;;;16.00;14.90;;;;;;;38.67;20.56;100632.19;4990949;28;96774;-79
2023/07/09 09:57:54;;;;;;;15.95;14.82;;;;;;;38.66;20.74;100640.63;5011685;28;97028;-80
2023/07/09 10:00:28;;;;;;;16.70;15.27;;;;;;;38.57;20.81;100642.84;5011506;28;98719;-80
2023/07/09 10:03:02;;;;;;;16.40;15.40;;;;;;;38.36;20.86;100635.88;5011585;28;98851;-80
2023/07/09 10:05:44;;;;;;;17.25;15.93;;;;;;;38.03;20.44;100628.03;5011500;28;96685;-80
2023/07/09 10:08:18;;;;;;;15.38;14.35;;;;;;;38.00;20.70;100639.44;5011092;28;97145;-80
2023/07/09 10:10:44;;;;;;;16.83;15.82;;;;;;;37.93;20.99;100644.09;5010017;28;98958;-80
2023/07/09 10:13:22;;;;;;;17.05;15.65;;;;;;;37.78;21.16;100636.22;5010409;28;98323;-81
2023/07/09 10:16:08;;;;;;;15.00;14.10;;;;;;;37.82;21.44;100643.78;5010532;28;96607;-80
2023/07/09 10:19:17;;;;;;;16.75;15.65;;;;;;;37.64;21.09;100638.22;4997463;28;96754;-80
2023/07/09 10:21:47;;;;;;;16.42;15.32;;;;;;;37.37;20.30;100651.25;5008685;28;99254;-80
2023/07/09 10:24:39;;;;;;;;;;;;;;;37.25;20.59;100650.28;5019025;28;98364;-79
2023/07/09 10:27:13;;;;;;;16.20;15.20;;;;;;;37.26;20.87;100644.56;4986024;28;97126;-80
2023/07/09 10:30:00;;;;;;;16.35;15.23;;;;;;;37.25;21.03;100650.28;5013336;28;96813;-80
2023/07/09 10:32:32;;;;;;;17.45;16.15;;;;;;;37.09;21.23;100647.00;5015093;28;98761;-79
2023/07/09 10:35:27;;;;;;;16.95;15.85;;;;;;;36.96;20.89;100646.19;5014991;28;98389;-80
2023/07/09 10:38:19;;;;;;;15.77;14.88;;;;;;;36.70;20.46;100631.56;4999148;28;96705;-80
2023/07/09 10:40:51;;;;;;;15.68;14.63;;;;;;;36.63;21.19;100641.72;5015943;28;97300;-80
2023/07/09 10:43:22;;;;;;;16.88;15.77;;;;;;;36.39;20.92;100632.28;5013189;28;98814;-80
2023/07/09 10:45:55;;;;;;;16.92;15.82;;;;;;;36.43;21.08;100633.53;4992826;28;98497;-80
2023/07/09 10:48:45;;;;;;;16.00;14.90;;;;;;;36.27;21.40;100632.91;5005791;28;96761;-80
2023/07/09 10:51:18;;;;;;;15.82;14.68;;;;;;;36.24;21.72;100625.16;5014894;28;96677;-81
2023/07/09 10:53:48;;;;;;;16.17;15.07;;;;;;;36.11;21.33;100635.28;5017002;28;99339;-80
2023/07/09 10:56:17;;;;;;;16.35;15.25;;;;;;;36.13;21.61;100631.28;5007162;28;98807;-81
2023/07/09 10:58:52;;;;;;;16.63;15.25;;;;;;;36.01;21.67;100622.88;5005568;28;97159;-79
2023/07/09 11:01:25;;;;;;;15.70;14.60;;;;;;;35.87;21.86;100620.34;5000751;28;96746;-80
2023/07/09 11:03:55;;;;;;;15.68;14.52;;;;;;;35.79;21.84;100638.63;5009778;28;98920;-79
2023/07/09 11:06:25;;;;;;;15.48;14.55;;;;;;;35.72;21.77;100624.16;5008065;28;98539;-79
2023/07/09 11:08:53;;;;;;;15.40;14.40;;;;;;;35.57;21.93;100626.22;5005430;28;96734;-80
2023/07/09 11:11:30;;;;;;;15.40;14.40;;;;;;;35.62;21.62;100626.44;5013029;28;96981;-79
2023/07/09 11:14:15;;;;;;;15.93;14.70;;;;;;;35.49;22.20;100619.06;5009776;28;98684;-79
2023/07/09 11:16:42;;;;;;;15.40;14.40;;;;;;;35.48;22.17;100625.56;4995091;28;98910;-80
2023/07/09 11:19:18;;;;;;;15.68;14.68;;;;;;;35.33;22.28;100630.38;5002013;28;97126;-79